Anacostia, District of Columbia
Current Conditions -  °F | °C
As of 10:52 AM on Friday 19 Dec 2014 (Local Time) from KDCA Reporting Station
Overcast Overcast  
Wind Chill: 31°   Ceiling: 3500
Heat Index: 39°   Visibility: 10mi
Dew Point: 23°   Wind: 14mph
Humidity: 53%   Direction: 330°NNW
Pressure: 30.19"   Gusts: 22mph
Location:  38.8618°N, 77.0026°W
Report Text: KDCA 191552Z 33012G19KT 10SM OVC035 04/M05 A3019 RMK AO2 SLP223 T00391050
Loading
Personal Weather Stations






























Interactive Weather Map New forecast layout! Learn more

10-Day Weather Forecast

Advertisements
Track Severe Weather on mobile